createdAt,value
2022-10-17T00:01:00.099Z,99.90
2022-10-17T00:03:27.336Z,99.90
2022-10-17T00:05:56.132Z,99.90
2022-10-17T00:08:23.874Z,99.90
2022-10-17T00:11:07.933Z,99.90
2022-10-17T00:13:35.678Z,99.90
2022-10-17T00:16:02.982Z,99.90
2022-10-17T00:18:30.009Z,99.90
2022-10-17T00:20:57.222Z,99.90
2022-10-17T00:23:24.551Z,99.90
2022-10-17T00:26:06.439Z,99.90
2022-10-17T00:28:33.874Z,99.90
2022-10-17T00:31:05.564Z,99.90
2022-10-17T00:33:34.758Z,99.90
2022-10-17T00:36:21.699Z,99.90
2022-10-17T00:38:55.831Z,99.90
2022-10-17T00:41:30.362Z,99.90
2022-10-17T00:44:06.081Z,99.90
2022-10-17T00:46:35.462Z,99.90
2022-10-17T00:49:10.919Z,99.90
2022-10-17T00:54:17.214Z,99.90
2022-10-17T00:56:47.089Z,99.90
2022-10-17T00:59:16.973Z,99.90
2022-10-17T01:02:09.983Z,99.90
2022-10-17T01:04:40.198Z,99.90
2022-10-17T01:07:07.497Z,99.90
2022-10-17T01:09:35.655Z,99.90
2022-10-17T01:12:32.407Z,99.90
2022-10-17T01:15:28.221Z,99.90
2022-10-17T01:18:52.645Z,99.90
2022-10-17T01:21:49.637Z,99.90
2022-10-17T01:24:54.041Z,99.90
2022-10-17T01:27:48.977Z,99.90
2022-10-17T01:30:43.105Z,99.90
2022-10-17T01:33:35.840Z,99.90
2022-10-17T01:36:15.416Z,99.90
2022-10-17T01:39:15.090Z,99.90
2022-10-17T01:42:26.288Z,99.90
2022-10-17T01:45:20.759Z,99.90
2022-10-17T01:47:52.295Z,99.90
2022-10-17T01:50:26.010Z,99.90
2022-10-17T01:53:02.759Z,99.90
2022-10-17T01:55:37.551Z,99.90
2022-10-17T01:58:22.048Z,99.90
2022-10-17T02:00:50.650Z,99.90
2022-10-17T02:03:21.080Z,99.90
2022-10-17T02:05:48.818Z,99.90
2022-10-17T02:08:30.061Z,99.90
2022-10-17T02:11:15.254Z,99.90
2022-10-17T02:14:32.110Z,99.90
2022-10-17T02:17:11.033Z,99.90
2022-10-17T02:20:10.632Z,99.90
2022-10-17T02:23:27.862Z,99.90
2022-10-17T02:26:10.453Z,99.90
2022-10-17T02:28:56.069Z,99.90
2022-10-17T02:31:29.044Z,99.90
2022-10-17T02:34:06.809Z,99.90
2022-10-17T02:36:40.604Z,99.90
2022-10-17T02:39:09.558Z,99.90
2022-10-17T02:41:38.287Z,99.90
2022-10-17T02:44:06.859Z,99.90
2022-10-17T02:46:35.513Z,99.90
2022-10-17T02:49:20.527Z,99.90
2022-10-17T02:52:10.422Z,99.90
2022-10-17T02:54:51.414Z,99.90
2022-10-17T02:57:39.480Z,99.90
2022-10-17T03:00:10.981Z,99.90
2022-10-17T03:02:44.840Z,99.90
2022-10-17T03:05:23.091Z,99.90
2022-10-17T03:07:50.779Z,99.90
2022-10-17T03:10:18.484Z,99.90
2022-10-17T03:12:45.499Z,99.90
2022-10-17T03:15:13.578Z,99.90
2022-10-17T03:17:41.110Z,99.90
2022-10-17T03:20:08.595Z,99.90
2022-10-17T03:22:35.723Z,99.90
2022-10-17T03:25:03.058Z,99.90
2022-10-17T03:27:30.304Z,99.90
2022-10-17T03:29:57.733Z,99.90
2022-10-17T03:32:24.883Z,99.90
2022-10-17T03:34:51.929Z,99.90
2022-10-17T03:37:19.026Z,99.90
2022-10-17T03:39:46.049Z,99.90
2022-10-17T03:42:13.060Z,99.90
2022-10-17T03:44:40.091Z,99.90
2022-10-17T03:47:09.245Z,99.90
2022-10-17T03:49:38.921Z,99.90
2022-10-17T03:52:06.167Z,99.90
2022-10-17T03:54:33.221Z,99.90
2022-10-17T03:57:00.310Z,99.90
2022-10-17T03:59:27.402Z,99.90
2022-10-17T04:01:54.449Z,99.90
2022-10-17T04:04:21.844Z,99.90
2022-10-17T04:06:48.958Z,99.90
2022-10-17T04:09:16.143Z,99.90
2022-10-17T04:11:43.182Z,99.90
2022-10-17T04:14:10.506Z,99.90
2022-10-17T04:16:38.538Z,99.90
2022-10-17T04:19:05.620Z,99.90
2022-10-17T04:21:32.708Z,99.90
2022-10-17T04:24:00.862Z,99.90
2022-10-17T04:26:30.925Z,99.90
2022-10-17T04:28:57.944Z,99.90
2022-10-17T04:31:25.107Z,99.90
2022-10-17T04:33:52.155Z,99.90
2022-10-17T04:36:20.345Z,99.90
2022-10-17T04:38:47.408Z,99.90
2022-10-17T04:41:18.548Z,99.90
2022-10-17T04:43:48.658Z,99.90
2022-10-17T04:46:18.501Z,99.90
2022-10-17T04:48:45.623Z,99.90
2022-10-17T04:51:16.052Z,99.90
2022-10-17T04:53:44.562Z,99.90
2022-10-17T04:56:19.430Z,99.90
2022-10-17T04:58:47.435Z,99.90
2022-10-17T05:01:18.514Z,99.90
2022-10-17T05:03:46.480Z,99.90
2022-10-17T05:06:17.790Z,99.90
2022-10-17T05:08:45.589Z,99.90
2022-10-17T05:11:25.475Z,99.90
2022-10-17T05:13:59.345Z,99.90
2022-10-17T05:16:27.587Z,99.90
2022-10-17T05:18:57.476Z,99.90
2022-10-17T05:21:27.948Z,99.90
2022-10-17T05:23:55.560Z,99.90
2022-10-17T05:26:23.991Z,99.90
2022-10-17T05:28:52.569Z,99.90
2022-10-17T05:31:19.783Z,99.90
2022-10-17T05:33:47.120Z,99.90
2022-10-17T05:36:14.474Z,99.90
2022-10-17T05:38:41.584Z,99.90
2022-10-17T05:41:10.016Z,99.90
2022-10-17T05:43:37.093Z,99.90
2022-10-17T05:46:06.534Z,99.90
2022-10-17T05:48:34.833Z,99.90
2022-10-17T05:51:05.888Z,99.90
2022-10-17T05:53:37.095Z,99.90
2022-10-17T05:56:08.459Z,99.90
2022-10-17T05:58:49.762Z,99.90
2022-10-17T06:01:18.358Z,99.90
2022-10-17T06:03:45.516Z,99.90
2022-10-17T06:06:14.432Z,99.90
2022-10-17T06:08:41.852Z,99.90
2022-10-17T12:39:43.932Z,95.90
2022-10-17T12:42:32.156Z,95.10
2022-10-17T12:44:59.546Z,94.60
2022-10-17T12:47:39.102Z,94.00
2022-10-17T12:51:34.687Z,94.30
2022-10-17T12:54:18.939Z,92.90
2022-10-17T12:56:49.405Z,93.40
2022-10-17T12:59:29.374Z,92.10
2022-10-17T13:02:01.928Z,90.90
2022-10-17T13:04:30.678Z,90.90
2022-10-17T13:07:01.030Z,90.30
2022-10-17T13:09:36.405Z,89.50
2022-10-17T13:12:06.342Z,88.80
2022-10-17T13:14:34.936Z,86.50
2022-10-17T13:17:06.348Z,87.70
2022-10-17T13:19:45.726Z,86.60
2022-10-17T13:22:26.110Z,85.80
2022-10-17T13:25:07.411Z,83.90
2022-10-17T13:27:36.815Z,84.60
2022-10-17T13:30:24.757Z,85.60
2022-10-17T13:32:54.199Z,84.90
2022-10-17T13:38:32.176Z,82.20
2022-10-17T13:41:22.943Z,85.00
2022-10-17T13:43:49.437Z,82.00
2022-10-17T13:46:37.874Z,79.30
2022-10-17T13:49:33.358Z,81.80
2022-10-17T13:52:03.927Z,82.00
2022-10-17T13:54:42.312Z,78.90
2022-10-17T13:57:28.065Z,77.60
2022-10-17T14:00:15.265Z,78.50
2022-10-17T14:02:42.723Z,79.10
2022-10-17T14:05:17.743Z,77.90
2022-10-17T14:08:21.765Z,77.20
2022-10-17T14:10:48.246Z,76.10
2022-10-17T14:13:25.982Z,76.80
2022-10-17T14:15:56.282Z,76.30
2022-10-17T14:18:36.366Z,76.60
2022-10-17T14:24:24.828Z,73.90
2022-10-17T14:27:01.629Z,74.90
2022-10-17T14:29:31.167Z,73.50
2022-10-17T14:32:13.786Z,74.80
2022-10-17T14:34:41.398Z,73.10
2022-10-17T14:37:22.236Z,72.20
2022-10-17T14:39:51.274Z,73.20
2022-10-17T14:42:23.190Z,75.10
2022-10-17T14:44:53.548Z,74.80
2022-10-17T14:47:42.778Z,74.00
2022-10-17T14:50:13.197Z,72.80
2022-10-17T14:52:40.848Z,73.90
2022-10-17T14:55:28.739Z,74.60
2022-10-17T14:57:55.838Z,74.20
2022-10-17T15:00:24.092Z,75.30
2022-10-17T15:02:53.498Z,75.60
2022-10-17T15:05:23.186Z,75.10
2022-10-17T15:07:50.589Z,76.00
2022-10-17T15:10:41.802Z,77.30
2022-10-17T15:13:28.280Z,76.40
2022-10-17T15:15:56.190Z,76.70
2022-10-17T15:18:23.290Z,77.30
2022-10-17T15:20:56.279Z,76.40
2022-10-17T15:23:32.308Z,77.10
2022-10-17T15:25:59.467Z,77.10
2022-10-17T15:28:27.389Z,78.40
2022-10-17T15:30:54.526Z,78.10
2022-10-17T15:33:21.560Z,78.50
2022-10-17T15:35:48.730Z,78.60
2022-10-17T15:38:18.177Z,78.80
2022-10-17T15:40:48.914Z,79.50
2022-10-17T15:43:19.650Z,79.00
2022-10-17T15:45:48.190Z,79.10
2022-10-17T15:48:24.839Z,79.90
2022-10-17T15:50:51.920Z,81.00
2022-10-17T15:53:19.336Z,80.30
2022-10-17T15:55:46.536Z,80.00
2022-10-17T15:58:16.526Z,79.30
2022-10-17T16:00:45.283Z,79.90
2022-10-17T16:03:12.568Z,79.30
2022-10-17T16:05:39.759Z,80.80
2022-10-17T16:08:06.883Z,81.30
2022-10-17T16:10:34.838Z,81.40
2022-10-17T16:13:01.995Z,82.40
2022-10-17T16:15:29.186Z,82.70
2022-10-17T16:18:00.448Z,83.00
2022-10-17T16:20:29.942Z,83.30
2022-10-17T16:23:00.719Z,83.30
2022-10-17T16:25:30.598Z,83.80
2022-10-17T16:28:00.548Z,84.70
2022-10-17T16:30:30.387Z,84.70
2022-10-17T16:32:57.470Z,84.50
2022-10-17T16:35:33.199Z,84.90
2022-10-17T16:38:05.995Z,84.30
2022-10-17T16:40:33.392Z,84.50
2022-10-17T16:43:00.524Z,84.70
2022-10-17T16:45:27.659Z,83.70
2022-10-17T16:47:55.689Z,83.80
2022-10-17T16:50:22.851Z,83.20
2022-10-17T16:52:50.208Z,84.30
2022-10-17T16:55:19.016Z,84.00
2022-10-17T16:57:48.885Z,84.50
2022-10-17T17:00:17.492Z,85.20
2022-10-17T17:02:47.128Z,84.70
2022-10-17T17:05:15.026Z,85.10
2022-10-17T17:07:43.448Z,85.00
2022-10-17T17:10:11.638Z,84.60
2022-10-17T17:12:39.102Z,84.80
2022-10-17T17:15:06.655Z,85.40
2022-10-17T17:17:49.566Z,84.30
2022-10-17T17:20:19.881Z,85.30
2022-10-17T17:22:47.528Z,85.70
2022-10-17T17:27:44.656Z,86.40
2022-10-17T17:30:14.158Z,86.50
2022-10-17T17:32:41.836Z,86.90
2022-10-17T17:35:09.991Z,86.90
2022-10-17T17:37:37.442Z,86.50
2022-10-17T17:40:06.769Z,86.80
2022-10-17T17:42:34.423Z,87.30
2022-10-17T17:45:02.136Z,87.60
2022-10-17T17:47:30.390Z,87.60
2022-10-17T17:49:58.767Z,88.40
2022-10-17T17:52:29.178Z,88.10
2022-10-17T17:54:58.203Z,88.30
2022-10-17T17:57:25.689Z,89.30
2022-10-17T17:59:52.830Z,89.40
2022-10-17T18:02:20.167Z,89.30
2022-10-17T18:04:47.668Z,90.10
2022-10-17T18:07:15.299Z,90.10
2022-10-17T18:09:42.947Z,90.40
2022-10-17T18:12:10.567Z,90.30
2022-10-17T18:14:38.611Z,90.50
2022-10-17T18:17:06.669Z,90.80
2022-10-17T18:19:35.282Z,91.00
2022-10-17T18:22:03.350Z,91.30
2022-10-17T18:24:31.198Z,91.40
2022-10-17T18:27:03.961Z,91.70
2022-10-17T18:29:35.360Z,91.90
2022-10-17T18:32:03.433Z,92.20
2022-10-17T18:34:31.268Z,92.40
2022-10-17T18:37:00.413Z,92.60
2022-10-17T18:39:30.410Z,92.80
2022-10-17T18:41:58.397Z,93.10
2022-10-17T18:44:29.474Z,93.50
2022-10-17T18:47:03.080Z,93.60
2022-10-17T18:49:32.588Z,93.80
2022-10-17T18:52:00.564Z,93.90
2022-10-17T18:54:29.589Z,94.30
2022-10-17T18:56:57.588Z,94.70
2022-10-17T18:59:25.735Z,94.90
2022-10-17T19:01:55.061Z,95.20
2022-10-17T19:04:23.097Z,95.70
2022-10-17T19:06:51.049Z,96.10
2022-10-17T19:09:18.730Z,96.50
2022-10-17T19:11:45.966Z,96.90
2022-10-17T19:14:13.698Z,97.30
2022-10-17T19:16:54.383Z,97.50
2022-10-17T19:19:26.807Z,97.90
2022-10-17T19:21:55.585Z,98.20
2022-10-17T19:24:28.200Z,98.60
2022-10-17T19:26:58.293Z,99.10
2022-10-17T19:29:31.566Z,99.30
2022-10-17T19:31:59.510Z,99.60
2022-10-17T19:34:27.918Z,99.90
2022-10-17T19:36:55.907Z,99.90
2022-10-17T19:39:26.085Z,99.90
2022-10-17T19:41:53.734Z,99.90
2022-10-17T19:44:21.005Z,99.90
2022-10-17T19:46:49.381Z,99.90
2022-10-17T19:49:17.756Z,99.90
2022-10-17T19:51:45.924Z,99.90
2022-10-17T19:54:15.264Z,99.90
2022-10-17T19:56:44.810Z,99.90
2022-10-17T19:59:14.776Z,99.90
2022-10-17T20:01:43.229Z,99.90
2022-10-17T20:04:12.204Z,99.90
2022-10-17T20:06:41.169Z,99.90
2022-10-17T20:09:13.950Z,99.90
2022-10-17T20:11:44.298Z,99.90
2022-10-17T20:14:11.523Z,99.90
2022-10-17T20:16:38.769Z,99.90
2022-10-17T20:19:10.879Z,99.90
2022-10-17T20:21:39.846Z,99.90
2022-10-17T20:24:11.519Z,99.90
2022-10-17T20:26:39.814Z,99.90
2022-10-17T20:29:15.794Z,99.90
2022-10-17T20:31:45.413Z,99.90
2022-10-17T20:34:15.529Z,99.90
2022-10-17T20:36:43.209Z,99.90
2022-10-17T20:39:13.382Z,99.90
2022-10-17T20:41:41.492Z,99.90
2022-10-17T20:44:09.285Z,99.90
2022-10-17T20:46:41.595Z,99.90
2022-10-17T20:49:16.849Z,99.90
2022-10-17T20:51:44.920Z,99.90
2022-10-17T20:54:12.817Z,99.90
2022-10-17T20:56:40.192Z,99.90
2022-10-17T20:59:13.177Z,99.90
2022-10-17T21:01:40.765Z,99.90
2022-10-17T21:04:40.578Z,99.90
2022-10-17T21:06:55.721Z,99.90
2022-10-17T21:09:22.960Z,99.90
2022-10-17T21:11:54.340Z,99.90
2022-10-17T21:14:22.888Z,99.90
2022-10-17T21:16:50.273Z,99.90
2022-10-17T21:19:17.380Z,99.90
2022-10-17T21:21:46.617Z,99.90
2022-10-17T21:24:17.915Z,99.90
2022-10-17T21:26:46.891Z,99.90
2022-10-17T21:29:14.471Z,99.90
2022-10-17T21:31:44.156Z,99.90
2022-10-17T21:34:21.842Z,99.90
2022-10-17T21:36:49.418Z,99.90
2022-10-17T21:39:17.275Z,99.90
2022-10-17T21:41:45.309Z,99.90
2022-10-17T21:44:15.960Z,99.90
2022-10-17T21:46:44.076Z,99.90
2022-10-17T21:49:19.583Z,99.90
2022-10-17T21:51:47.796Z,99.90
2022-10-17T21:54:16.408Z,99.90
2022-10-17T21:56:43.780Z,99.90
2022-10-17T21:59:11.218Z,99.90
2022-10-17T22:01:41.705Z,99.90
2022-10-17T22:04:13.990Z,99.90
2022-10-17T22:06:43.449Z,99.90
2022-10-17T22:09:19.840Z,99.90
2022-10-17T22:11:50.715Z,99.90
2022-10-17T22:14:20.811Z,99.90
2022-10-17T22:16:49.196Z,99.90
2022-10-17T22:19:21.346Z,99.90
2022-10-17T22:21:48.922Z,99.90
2022-10-17T22:26:47.338Z,99.90
2022-10-17T22:29:15.507Z,99.90
2022-10-17T22:31:42.565Z,99.90
2022-10-17T22:34:12.765Z,99.90
2022-10-17T22:36:40.220Z,99.90
2022-10-17T22:39:07.866Z,99.90
2022-10-17T22:41:34.988Z,99.90
2022-10-17T22:44:02.470Z,99.90
2022-10-17T22:46:30.042Z,99.90
2022-10-17T22:48:57.306Z,99.90
2022-10-17T22:53:56.716Z,99.90
2022-10-17T22:56:24.030Z,99.90
2022-10-17T22:58:51.582Z,99.90
2022-10-17T23:01:24.032Z,99.90
2022-10-17T23:03:52.704Z,99.90
2022-10-17T23:06:21.133Z,99.90
2022-10-17T23:08:48.941Z,99.90
2022-10-17T23:11:16.320Z,99.90
2022-10-17T23:13:43.430Z,99.90
2022-10-17T23:16:10.739Z,99.90
2022-10-17T23:18:38.743Z,99.90
2022-10-17T23:21:07.148Z,99.90
2022-10-17T23:23:34.541Z,99.90
2022-10-17T23:26:14.185Z,99.90
2022-10-17T23:28:42.615Z,99.90
2022-10-17T23:31:16.928Z,99.90
2022-10-17T23:33:45.801Z,99.90
2022-10-17T23:36:16.568Z,99.90
2022-10-17T23:38:45.519Z,99.90
2022-10-17T23:41:12.852Z,99.90
2022-10-17T23:43:40.387Z,99.90
2022-10-17T23:46:08.172Z,99.90
2022-10-17T23:48:35.612Z,99.90
2022-10-17T23:51:02.879Z,99.90
2022-10-17T23:53:30.482Z,99.90
2022-10-17T23:55:57.566Z,99.90
2022-10-17T23:58:24.649Z,99.90
